Nice-Côte d'Azur Airport

Airport
ICAO code: 
LFMN
IATA Code: 
NCE
Summary
ICAO Region: 
EUR
Territory: 
Location: 
Nice, Provence-Alpes-Cote d'Azur
Serving: 
Nice
Elevation: 
12 ft
Coordinates: 
Aerial View: 
43° 39' 34.531" N, 7° 12' 47.148" E
Airport LOS: 
Parallel Runway Operation
Metar
Observation
LFMN 051900Z 34007KT 330V030 9999 FEW050 SCT200 09/M04 Q1002 NOSIG
Station
Nice
Date/Time
2021-12-05 19:00:00
Wind direction
340°
Wind speed
07 kts
Lowest cloud amount
few clouds
Temperature
9°C
Dew point
-4°C
Humidity
39%
QNH
1002 hPa
Weather condition
n/a

Description

Nice Côte d'Azur Airport is an airport located 3.2 nm southwest of Nice, in the Alpes-Maritimes department of France. The airport is positioned 7 km west of the city centre, and is the principal port of arrival for passengers to the Côte d'Azur.

Climatology

Dry-summer subtropical ”Mediterranean" climate (Köppen climate classification Csa) - characterized by hot, dry summers and mild winters. During the summer, subtropical high pressure cells dominate, making rainfall unlikely except for the occasional thunderstorm. In the winter, periodic storms bring rain (snow at higher elevations).

Runways

Designator Length Width Surface Rops
04L/22R 2742 45 ASP Yes/Yes
04R/22L 2960 45 ASP Yes/Yes
Airport map: 
Aerial View: 

Accidents and Serious Incidents at or in the vicinity of LFMN

SKYbrary Partners:

Safety knowledge contributed by: